Time;durP1;ratioP1;P1;durP2;ratioP2;P2;SDS_P1;SDS_P2;PMS_P1;PMS_P2;Temp;Humidity;BMP_temperature;BMP_pressure;BME280_temperature;BME280_humidity;BME280_pressure;Samples;Min_cycle;Max_cycle;Signal;HPM_P1;HPM_P2
2022/01/16 00:00:53;;;;;;;1.87;1.02;;;;;;;;;;363151;147;857269;-62
2022/01/16 00:04:24;;;;;;;2.58;1.13;;;;;;;;;;350194;150;857321;-64
2022/01/16 00:05:26;;;;;;;4.27;1.00;;;;;;;;;;361731;147;864848;-63
2022/01/16 00:06:28;;;;;;;2.15;1.09;;;;;;;;;;356172;149;856680;-62
2022/01/16 00:07:30;;;;;;;3.39;1.26;;;;;;;;;;363801;145;863622;-62
2022/01/16 00:08:32;;;;;;;3.04;0.98;;;;;;;;;;362764;147;863755;-62
2022/01/16 00:09:34;;;;;;;2.03;1.07;;;;;;;;;;363382;146;856522;-62
2022/01/16 00:10:36;;;;;;;2.53;0.87;;;;;;;;;;362237;146;857041;-62
2022/01/16 00:11:38;;;;;;;2.96;1.15;;;;;;;;;;363412;147;863954;-63
2022/01/16 00:12:39;;;;;;;2.33;1.11;;;;;;;;;;361880;147;863741;-63
2022/01/16 00:13:41;;;;;;;2.64;0.94;;;;;;;;;;363768;146;864091;-63
2022/01/16 00:14:43;;;;;;;3.08;1.44;;;;;;;;;;362896;146;863942;-62
2022/01/16 00:15:44;;;;;;;2.71;1.01;;;;;;;;;;362551;146;863622;-62
2022/01/16 00:16:46;;;;;;;2.03;1.13;;;;;;;;;;362804;146;863741;-62
2022/01/16 00:18:09;;;;;;;1.77;0.91;;;;;;;;;;362742;146;856306;-61
2022/01/16 00:18:52;;;;;;;3.13;1.06;;;;;;;;;;360009;147;856660;-62
2022/01/16 00:19:54;;;;;;;2.80;1.01;;;;;;;;;;363049;147;855994;-63
2022/01/16 00:20:56;;;;;;;2.86;1.03;;;;;;;;;;362210;146;856822;-62
2022/01/16 00:21:58;;;;;;;4.51;1.59;;;;;;;;;;362787;146;863745;-63
2022/01/16 00:24:50;;;;;;;3.53;0.98;;;;;;;1.51;51.77;100026.59;369606;142;881626;-62
2022/01/16 00:25:53;;;;;;;2.71;1.02;;;;;;;1.29;52.43;100007.20;364512;145;857383;-62
2022/01/16 00:26:55;;;;;;;2.12;1.00;;;;;;;1.42;52.38;100011.86;363744;145;858901;-62
2022/01/16 00:27:57;;;;;;;3.83;1.10;;;;;;;1.27;52.32;100025.03;363391;145;857398;-62
2022/01/16 00:28:59;;;;;;;2.92;0.95;;;;;;;1.37;52.67;100015.11;364531;145;865820;-63
2022/01/16 00:30:00;;;;;;;2.15;0.79;;;;;;;1.48;52.21;100012.86;363516;145;860048;-63
2022/01/16 00:31:02;;;;;;;1.80;1.04;;;;;;;1.56;52.04;100017.39;362646;147;864938;-63
2022/01/16 00:32:05;;;;;;;3.09;1.06;;;;;;;1.44;52.05;100022.12;360755;146;866508;-63
2022/01/16 00:33:07;;;;;;;2.70;1.19;;;;;;;1.58;52.41;100018.30;362669;147;858691;-63
2022/01/16 00:34:10;;;;;;;1.67;0.81;;;;;;;1.68;52.37;100011.80;362618;147;857167;-62
2022/01/16 00:35:12;;;;;;;2.03;1.24;;;;;;;1.26;52.07;100014.77;362534;146;864689;-64
2022/01/16 00:36:17;;;;;;;2.48;1.01;;;;;;;;;;362896;147;857959;-62
2022/01/16 00:37:19;;;;;;;2.11;0.88;;;;;;;;;;359639;147;858569;-62
2022/01/16 00:38:21;;;;;;;3.06;0.99;;;;;;;;;;362571;147;859538;-62
2022/01/16 00:39:23;;;;;;;0.94;0.79;;;;;;;;;;359653;147;857759;-62
2022/01/16 00:40:25;;;;;;;2.79;0.90;;;;;;;;;;361002;147;857302;-61
2022/01/16 00:41:27;;;;;;;1.19;0.80;;;;;;;;;;361974;147;857335;-62
2022/01/16 00:42:29;;;;;;;4.51;0.93;;;;;;;;;;360575;146;857545;-62
2022/01/16 00:43:31;;;;;;;3.31;1.21;;;;;;;;;;358021;148;864330;-61
2022/01/16 00:44:33;;;;;;;2.64;1.00;;;;;;;;;;360072;149;864948;-62
2022/01/16 00:45:35;;;;;;;3.48;0.90;;;;;;;;;;360446;147;857149;-66
2022/01/16 00:46:36;;;;;;;2.58;0.88;;;;;;;;;;359014;149;861109;-62
2022/01/16 00:47:38;;;;;;;2.56;0.80;;;;;;;;;;360876;149;859109;-62
2022/01/16 00:48:40;;;;;;;2.06;1.16;;;;;;;;;;357756;147;860683;-60
2022/01/16 00:49:41;;;;;;;4.51;0.99;;;;;;;;;;357956;148;864949;-62
2022/01/16 00:50:43;;;;;;;1.87;0.91;;;;;;;;;;358542;147;866374;-61
2022/01/16 00:51:44;;;;;;;2.71;1.02;;;;;;;;;;357376;148;865165;-64
2022/01/16 00:52:46;;;;;;;3.02;0.77;;;;;;;;;;356591;147;862329;-63
2022/01/16 00:53:48;;;;;;;3.52;0.79;;;;;;;;;;361425;149;859297;-64
2022/01/16 00:54:49;;;;;;;2.12;0.96;;;;;;;;;;357340;147;865850;-64
2022/01/16 00:55:51;;;;;;;3.06;1.10;;;;;;;;;;357935;148;865881;-63
2022/01/16 00:56:52;;;;;;;4.86;0.91;;;;;;;;;;359321;147;857994;-63
2022/01/16 00:57:54;;;;;;;3.33;0.96;;;;;;;;;;361005;149;864913;-63
2022/01/16 00:58:56;;;;;;;2.06;0.69;;;;;;;;;;357924;147;866883;-62
2022/01/16 00:59:58;;;;;;;1.72;0.78;;;;;;;;;;359902;146;866296;-61
2022/01/16 01:01:00;;;;;;;1.41;0.68;;;;;;;;;;358967;146;857278;-62
2022/01/16 01:02:02;;;;;;;3.31;0.90;;;;;;;;;;357338;146;858865;-63
2022/01/16 01:03:05;;;;;;;2.06;0.75;;;;;;;;;;360228;147;857623;-62
2022/01/16 01:04:07;;;;;;;1.16;0.73;;;;;;;;;;360073;146;857235;-65
2022/01/16 01:05:09;;;;;;;1.98;0.98;;;;;;;;;;357431;147;865668;-63
2022/01/16 01:06:12;;;;;;;1.73;0.87;;;;;;;;;;359129;147;857269;-62
2022/01/16 01:07:14;;;;;;;1.83;0.85;;;;;;;;;;359372;147;860498;-62
2022/01/16 01:08:15;;;;;;;2.54;0.82;;;;;;;;;;359154;146;858282;-63
2022/01/16 01:09:17;;;;;;;2.93;0.84;;;;;;;;;;351092;149;865980;-62
2022/01/16 01:10:19;;;;;;;1.40;0.74;;;;;;;;;;351982;150;864879;-62
2022/01/16 01:11:26;;;;;;;2.06;0.92;;;;;;;;;;359235;147;858954;-63
2022/01/16 01:12:53;;;;;;;1.61;0.75;;;;;;;;;;358980;147;857273;-62
2022/01/16 01:14:42;;;;;;;1.94;0.77;;;;;;;;;;358218;147;857200;-62
2022/01/16 01:15:48;;;;;;;4.23;0.87;;;;;;;;;;359625;147;865427;-62
2022/01/16 01:16:55;;;;;;;1.77;0.72;;;;;;;;;;358214;147;857279;-62
2022/01/16 01:17:56;;;;;;;1.06;0.73;;;;;;;;;;360142;147;864873;-62
2022/01/16 01:18:58;;;;;;;2.53;1.27;;;;;;;;;;359917;147;859260;-62
2022/01/16 01:19:59;;;;;;;1.55;0.91;;;;;;;;;;359754;147;865685;-62
2022/01/16 01:21:03;;;;;;;2.04;0.88;;;;;;;;;;359512;147;857230;-62
2022/01/16 01:22:05;;;;;;;2.94;1.07;;;;;;;;;;358477;147;865343;-63
2022/01/16 01:23:06;;;;;;;2.33;0.91;;;;;;;;;;359685;147;857285;-63
2022/01/16 01:24:08;;;;;;;1.94;0.60;;;;;;;;;;357804;147;857679;-62
2022/01/16 01:25:12;;;;;;;1.38;0.68;;;;;;;;;;358828;147;857221;-62
2022/01/16 01:26:14;;;;;;;2.48;0.80;;;;;;;;;;358331;147;864843;-61
2022/01/16 01:27:23;;;;;;;4.67;0.84;;;;;;;;;;356227;148;857235;-62
2022/01/16 01:28:22;;;;;;;2.62;1.11;;;;;;;;;;346040;155;865377;-63
2022/01/16 01:29:27;;;;;;;1.96;0.76;;;;;;;;;;345566;154;858654;-62
2022/01/16 01:30:27;;;;;;;2.52;0.95;;;;;;;;;;345407;153;864988;-62
2022/01/16 01:31:30;;;;;;;3.54;0.98;;;;;;;;;;344256;154;866122;-63
2022/01/16 01:32:33;;;;;;;2.73;0.93;;;;;;;;;;346710;152;865563;-63
2022/01/16 01:33:35;;;;;;;1.32;0.81;;;;;;;;;;342882;153;857056;-63
2022/01/16 01:34:37;;;;;;;2.86;0.86;;;;;;;;;;348057;152;858985;-63
2022/01/16 01:35:39;;;;;;;1.85;0.85;;;;;;;;;;344782;155;865012;-63
2022/01/16 01:36:41;;;;;;;3.00;0.94;;;;;;;;;;345540;153;857601;-63
2022/01/16 01:37:43;;;;;;;2.54;0.80;;;;;;;;;;352190;151;857928;-63
2022/01/16 01:38:45;;;;;;;2.71;1.00;;;;;;;;;;350944;151;865006;-63
2022/01/16 01:39:46;;;;;;;2.26;0.91;;;;;;;;;;350948;152;859955;-62
2022/01/16 01:40:49;;;;;;;1.73;0.85;;;;;;;;;;345210;152;863473;-63
2022/01/16 01:41:55;;;;;;;1.15;0.63;;;;;;;;;;343566;154;865619;-62
2022/01/16 01:51:05;;;;;;;3.48;0.90;;;;;;;;;;344955;152;857248;-62
2022/01/16 01:52:05;;;;;;;2.35;1.02;;;;;;;;;;350161;151;864387;-62
2022/01/16 01:53:07;;;;;;;2.65;0.83;;;;;;;;;;351322;152;857135;-62
2022/01/16 01:54:09;;;;;;;2.25;0.90;;;;;;;;;;351847;152;859251;-62
2022/01/16 01:55:11;;;;;;;1.09;0.75;;;;;;;;;;343154;154;866211;-62
2022/01/16 01:56:14;;;;;;;2.30;0.87;;;;;;;;;;345532;155;857539;-62
2022/01/16 01:57:15;;;;;;;2.41;0.87;;;;;;;;;;345313;155;857333;-62
2022/01/16 01:58:18;;;;;;;4.46;1.00;;;;;;;;;;344424;155;857735;-62
2022/01/16 01:59:20;;;;;;;4.66;0.82;;;;;;;;;;343789;154;864577;-65
2022/01/16 02:00:23;;;;;;;2.97;0.94;;;;;;;;;;344288;155;858528;-62
2022/01/16 02:01:25;;;;;;;1.65;0.89;;;;;;;;;;344390;155;857297;-62
2022/01/16 02:02:32;;;;;;;3.03;0.85;;;;;;;;;;344352;154;857461;-62
2022/01/16 02:03:42;;;;;;;1.71;0.90;;;;;;;;;;344642;155;857698;-63
2022/01/16 02:04:36;;;;;;;1.92;0.89;;;;;;;;;;344454;155;865338;-62
2022/01/16 02:05:39;;;;;;;1.47;0.77;;;;;;;;;;343916;154;859371;-64
2022/01/16 02:06:41;;;;;;;1.54;0.80;;;;;;;;;;345453;154;864752;-64
2022/01/16 02:07:43;;;;;;;4.00;0.80;;;;;;;;;;345052;155;857782;-64
2022/01/16 02:08:46;;;;;;;2.86;1.15;;;;;;;;;;344589;154;857378;-63
2022/01/16 02:09:48;;;;;;;1.98;0.87;;;;;;;;;;344022;154;857444;-64
2022/01/16 02:10:50;;;;;;;1.84;0.94;;;;;;;;;;344836;155;866714;-64
2022/01/16 02:11:51;;;;;;;2.65;1.20;;;;;;;;;;344027;155;859555;-63
2022/01/16 02:13:00;;;;;;;1.99;0.83;;;;;;;;;;344689;154;864927;-63
2022/01/16 02:15:34;;;;;;;3.08;0.99;;;;;;;;;;344970;155;858635;-64
2022/01/16 02:28:02;;;;;;;2.39;1.00;;;;;;;;;;346231;153;857695;-63
2022/01/16 02:29:38;;;;;;;3.25;1.04;;;;;;;;;;354507;150;856373;-63
2022/01/16 02:30:52;;;;;;;3.46;1.18;;;;;;;;;;345547;152;857064;-63
2022/01/16 02:31:25;;;;;;;2.52;0.99;;;;;;;;;;345025;153;857688;-62
2022/01/16 02:34:48;;;;;;;2.17;0.99;;;;;;;;;;359711;147;865051;-63
2022/01/16 02:35:52;;;;;;;3.50;1.10;;;;;;;;;;360507;147;857949;-63
2022/01/16 02:36:58;;;;;;;3.41;1.26;;;;;;;;;;359951;147;857002;-64
2022/01/16 02:37:58;;;;;;;4.23;1.26;;;;;;;;;;361074;147;857650;-63
2022/01/16 02:39:02;;;;;;;4.52;1.30;;;;;;;;;;358777;147;858518;-63
2022/01/16 02:40:12;;;;;;;2.09;1.15;;;;;;;;;;360309;147;864653;-62
2022/01/16 02:41:09;;;;;;;6.43;1.31;;;;;;;;;;351107;150;858565;-63
2022/01/16 02:42:12;;;;;;;3.35;1.16;;;;;;;;;;350707;149;857260;-62
2022/01/16 02:43:17;;;;;;;3.70;1.19;;;;;;;;;;359460;147;864926;-63
2022/01/16 02:44:32;;;;;;;3.16;1.22;;;;;;;;;;359815;147;864504;-63
2022/01/16 02:45:29;;;;;;;3.98;1.24;;;;;;;;;;358282;147;857320;-63
2022/01/16 02:47:33;;;;;;;5.85;1.21;;;;;;;;;;358397;148;857537;-63
2022/01/16 02:48:34;;;;;;;2.42;1.06;;;;;;;;;;358402;147;857386;-64
2022/01/16 02:49:36;;;;;;;2.15;0.94;;;;;;;;;;359667;147;857209;-63
2022/01/16 02:50:38;;;;;;;2.19;0.90;;;;;;;;;;359107;147;857858;-63
2022/01/16 02:51:40;;;;;;;3.19;1.31;;;;;;;;;;358387;147;857162;-62
2022/01/16 02:52:43;;;;;;;3.59;1.28;;;;;;;;;;360491;147;857341;-62
2022/01/16 02:53:48;;;;;;;1.54;0.93;;;;;;;;;;359258;147;857363;-62
2022/01/16 02:54:50;;;;;;;3.39;1.04;;;;;;;;;;359051;147;857364;-64
2022/01/16 02:55:53;;;;;;;2.70;0.86;;;;;;;;;;360189;147;859271;-62
2022/01/16 02:56:55;;;;;;;2.41;0.99;;;;;;;;;;359779;147;858893;-62
2022/01/16 02:57:56;;;;;;;2.09;1.03;;;;;;;;;;359509;147;858161;-63
2022/01/16 02:58:58;;;;;;;3.50;1.01;;;;;;;;;;358565;147;864848;-63
2022/01/16 03:00:00;;;;;;;2.74;1.11;;;;;;;;;;360040;147;864783;-63
2022/01/16 03:01:01;;;;;;;2.18;0.89;;;;;;;;;;358938;147;858258;-63
2022/01/16 03:02:05;;;;;;;1.89;1.16;;;;;;;;;;359215;147;865684;-62
2022/01/16 03:03:07;;;;;;;2.07;0.96;;;;;;;;;;359806;147;858576;-63
2022/01/16 03:04:08;;;;;;;3.84;1.14;;;;;;;;;;359294;147;857385;-63
2022/01/16 03:05:11;;;;;;;2.45;1.00;;;;;;;;;;360674;147;864810;-63
2022/01/16 03:06:13;;;;;;;1.49;1.01;;;;;;;;;;359302;147;864993;-62
2022/01/16 03:07:15;;;;;;;2.46;0.99;;;;;;;;;;359680;147;857605;-64
2022/01/16 03:08:17;;;;;;;2.09;1.08;;;;;;;;;;358499;147;865349;-64
2022/01/16 03:09:19;;;;;;;2.06;1.14;;;;;;;;;;358298;147;865562;-62
2022/01/16 03:10:40;;;;;;;2.75;0.84;;;;;;;;;;358372;147;858294;-62
2022/01/16 03:11:37;;;;;;;1.84;1.04;;;;;;;;;;358438;147;865285;-63
2022/01/16 03:12:39;;;;;;;3.94;0.97;;;;;;;;;;359052;147;857345;-63
2022/01/16 03:13:47;;;;;;;2.71;1.32;;;;;;;;;;359147;147;858635;-63
2022/01/16 03:14:47;;;;;;;2.85;1.40;;;;;;;;;;358687;147;864967;-63
2022/01/16 03:15:50;;;;;;;3.22;1.20;;;;;;;;;;360516;147;857723;-61
2022/01/16 03:16:53;;;;;;;4.14;1.06;;;;;;;;;;358516;147;866190;-63
2022/01/16 03:21:53;;;;;;;1.59;1.06;;;;;;;;;;358657;147;857222;-64
2022/01/16 03:22:55;;;;;;;2.24;1.09;;;;;;;;;;359173;147;865056;-66
2022/01/16 03:23:57;;;;;;;3.14;1.02;;;;;;;;;;359733;147;857204;-63
2022/01/16 03:24:58;;;;;;;3.66;1.16;;;;;;;;;;360295;147;864594;-63
2022/01/16 03:26:00;;;;;;;2.36;1.24;;;;;;;;;;358952;147;857563;-63
2022/01/16 03:27:03;;;;;;;2.85;1.35;;;;;;;;;;358710;147;866692;-63
2022/01/16 03:28:05;;;;;;;2.02;0.94;;;;;;;;;;359458;147;857278;-63
2022/01/16 03:29:07;;;;;;;4.16;1.21;;;;;;;;;;359505;147;857356;-63
2022/01/16 03:30:12;;;;;;;3.36;1.25;;;;;;;;;;359819;147;865847;-63
2022/01/16 03:31:13;;;;;;;2.71;1.26;;;;;;;;;;358841;147;857255;-63
2022/01/16 03:32:15;;;;;;;2.14;1.07;;;;;;;;;;358884;147;857722;-63
2022/01/16 03:33:17;;;;;;;3.92;1.18;;;;;;;;;;360024;147;865851;-64
2022/01/16 03:34:19;;;;;;;2.33;1.17;;;;;;;;;;359799;147;858156;-63
2022/01/16 03:35:20;;;;;;;3.13;1.26;;;;;;;;;;360029;147;857234;-64
2022/01/16 03:36:22;;;;;;;4.15;1.20;;;;;;;;;;359032;147;864955;-64
2022/01/16 03:37:24;;;;;;;3.45;1.04;;;;;;;;;;359481;147;858164;-62
2022/01/16 03:38:25;;;;;;;3.49;0.96;;;;;;;;;;360465;147;866407;-62
2022/01/16 03:39:27;;;;;;;3.51;1.09;;;;;;;;;;360223;147;858708;-62
2022/01/16 03:40:29;;;;;;;1.99;1.24;;;;;;;;;;357813;147;865512;-62
2022/01/16 03:41:34;;;;;;;1.87;1.13;;;;;;;;;;361319;147;859281;-62
2022/01/16 03:42:36;;;;;;;3.85;1.14;;;;;;;;;;359703;147;857184;-63
2022/01/16 03:43:38;;;;;;;3.85;1.19;;;;;;;;;;358934;147;864554;-63
2022/01/16 03:44:40;;;;;;;2.93;1.09;;;;;;;;;;358916;147;864420;-63
2022/01/16 03:45:42;;;;;;;1.62;1.05;;;;;;;;;;359356;147;865550;-63
2022/01/16 03:46:44;;;;;;;3.69;1.15;;;;;;;;;;358900;147;863298;-63
2022/01/16 03:47:45;;;;;;;4.13;0.96;;;;;;;;;;359332;147;858904;-64
2022/01/16 03:48:47;;;;;;;2.71;1.11;;;;;;;;;;359669;147;857481;-63
2022/01/16 03:49:49;;;;;;;2.10;1.11;;;;;;;;;;358333;147;865371;-63
2022/01/16 03:50:51;;;;;;;4.26;1.18;;;;;;;;;;358176;147;866653;-64
2022/01/16 03:51:53;;;;;;;4.09;1.16;;;;;;;;;;359114;147;859084;-63
2022/01/16 03:52:54;;;;;;;3.67;1.19;;;;;;;;;;360020;147;858317;-63
2022/01/16 03:53:56;;;;;;;3.59;1.25;;;;;;;;;;351231;149;858687;-64
2022/01/16 03:54:57;;;;;;;3.09;1.02;;;;;;;;;;351853;149;866364;-64
2022/01/16 03:55:59;;;;;;;3.24;1.28;;;;;;;;;;358786;147;865100;-64
2022/01/16 03:57:01;;;;;;;3.03;1.36;;;;;;;;;;358403;147;866304;-64
2022/01/16 03:58:02;;;;;;;3.18;1.14;;;;;;;;;;359526;147;864944;-63
2022/01/16 03:59:04;;;;;;;2.50;1.36;;;;;;;;;;358366;147;866289;-63
2022/01/16 04:00:07;;;;;;;3.67;1.27;;;;;;;;;;360008;147;864829;-64
2022/01/16 04:04:35;;;;;;;2.22;1.13;;;;;;;1.59;54.79;100091.50;369592;142;882781;-63
2022/01/16 04:05:37;;;;;;;1.92;0.89;;;;;;;1.56;54.65;100100.73;363494;145;857388;-63
2022/01/16 04:06:39;;;;;;;3.74;1.24;;;;;;;1.53;54.68;100092.98;363662;145;857219;-63
2022/01/16 04:07:41;;;;;;;2.68;1.26;;;;;;;;;;362475;144;864944;-63
2022/01/16 04:08:42;;;;;;;2.83;1.02;;;;;;;;;;362349;144;857970;-63
2022/01/16 04:09:44;;;;;;;2.75;1.02;;;;;;;;;;361623;144;865014;-62
2022/01/16 04:10:45;;;;;;;4.01;1.21;;;;;;;;;;360936;144;857628;-63
2022/01/16 04:11:56;;;;;;;1.81;1.18;;;;;;;;;;361405;145;865836;-62
2022/01/16 04:12:54;;;;;;;2.69;1.12;;;;;;;;;;362263;144;864999;-62
2022/01/16 04:14:08;;;;;;;2.99;1.16;;;;;;;;;;363257;144;859543;-61
2022/01/16 04:16:14;;;;;;;3.43;1.00;;;;;;;;;;361980;145;859558;-62
2022/01/16 04:17:17;;;;;;;2.78;1.01;;;;;;;;;;362973;144;859025;-63
2022/01/16 04:18:19;;;;;;;2.29;1.07;;;;;;;;;;362178;145;857280;-63
2022/01/16 04:19:21;;;;;;;3.59;1.22;;;;;;;;;;362760;145;856708;-62
2022/01/16 04:20:24;;;;;;;3.78;1.24;;;;;;;;;;363129;144;856050;-64
2022/01/16 04:21:27;;;;;;;3.33;1.02;;;;;;;;;;363137;144;857242;-63
2022/01/16 04:22:28;;;;;;;3.02;1.09;;;;;;;;;;359751;144;865979;-63
2022/01/16 04:23:30;;;;;;;2.38;1.16;;;;;;;;;;358607;147;856955;-64
2022/01/16 04:24:32;;;;;;;2.55;1.09;;;;;;;;;;358683;147;864989;-62
2022/01/16 04:25:34;;;;;;;2.67;0.99;;;;;;;;;;356850;147;857371;-63
2022/01/16 04:26:36;;;;;;;3.90;1.47;;;;;;;;;;357192;146;864349;-62
2022/01/16 04:27:38;;;;;;;1.10;0.94;;;;;;;;;;358015;146;857288;-63
2022/01/16 04:28:39;;;;;;;2.87;1.16;;;;;;;;;;357956;147;866713;-63
2022/01/16 04:29:42;;;;;;;3.44;0.99;;;;;;;;;;357968;147;865392;-62
2022/01/16 04:30:45;;;;;;;5.25;1.13;;;;;;;;;;358004;147;864928;-62
2022/01/16 04:31:46;;;;;;;1.99;0.86;;;;;;;;;;357878;146;857742;-63
2022/01/16 04:32:48;;;;;;;1.95;1.01;;;;;;;;;;358315;147;857292;-62
2022/01/16 04:33:50;;;;;;;2.16;1.13;;;;;;;;;;356826;147;865104;-64
2022/01/16 04:34:51;;;;;;;2.72;1.21;;;;;;;;;;357678;147;864635;-61
2022/01/16 04:35:53;;;;;;;6.05;1.42;;;;;;;;;;356748;147;863810;-65
2022/01/16 04:36:55;;;;;;;6.55;1.14;;;;;;;;;;358435;146;862749;-61
2022/01/16 04:37:57;;;;;;;5.23;1.02;;;;;;;;;;356471;148;857258;-63
2022/01/16 04:38:58;;;;;;;2.19;1.04;;;;;;;;;;357349;147;859454;-62
2022/01/16 04:40:00;;;;;;;4.83;1.30;;;;;;;;;;357034;147;860856;-62
2022/01/16 04:43:48;;;;;;;4.76;1.07;;;;;;;;;;357802;147;865271;-62
2022/01/16 04:44:52;;;;;;;2.57;1.01;;;;;;;;;;357082;147;857466;-64
2022/01/16 04:45:54;;;;;;;3.08;1.21;;;;;;;;;;358729;147;857923;-63
2022/01/16 04:46:56;;;;;;;2.86;1.01;;;;;;;;;;357334;147;865941;-63
2022/01/16 04:47:57;;;;;;;3.50;1.01;;;;;;;;;;357945;147;866614;-63
2022/01/16 04:48:59;;;;;;;3.60;1.26;;;;;;;;;;357798;147;866160;-62
2022/01/16 04:50:01;;;;;;;4.21;1.19;;;;;;;;;;358657;147;865196;-63
2022/01/16 04:51:02;;;;;;;1.44;0.98;;;;;;;;;;357726;147;858041;-62
2022/01/16 04:52:04;;;;;;;2.68;1.03;;;;;;;;;;357916;147;864810;-61
2022/01/16 04:53:06;;;;;;;1.75;0.94;;;;;;;;;;357872;147;859245;-62
2022/01/16 04:54:08;;;;;;;2.54;0.94;;;;;;;;;;358559;146;857655;-62
2022/01/16 04:55:10;;;;;;;1.87;1.02;;;;;;;;;;357491;147;864877;-62
2022/01/16 04:56:12;;;;;;;2.63;1.07;;;;;;;;;;357970;146;857678;-62
2022/01/16 04:57:14;;;;;;;2.61;1.02;;;;;;;;;;358214;147;863770;-62
2022/01/16 04:58:18;;;;;;;2.82;1.11;;;;;;;;;;358065;146;857316;-63
2022/01/16 04:59:19;;;;;;;5.18;1.34;;;;;;;;;;357159;146;865350;-62
2022/01/16 05:00:22;;;;;;;1.74;0.86;;;;;;;;;;358622;147;864642;-65
2022/01/16 05:01:24;;;;;;;4.27;1.26;;;;;;;;;;358149;147;857150;-63
2022/01/16 05:02:26;;;;;;;1.95;1.29;;;;;;;;;;357024;147;864543;-62
2022/01/16 05:03:29;;;;;;;3.57;1.34;;;;;;;;;;357605;147;863875;-63
2022/01/16 05:04:30;;;;;;;1.54;0.95;;;;;;;;;;357626;146;856249;-62
2022/01/16 05:05:32;;;;;;;2.54;1.16;;;;;;;;;;356934;147;865288;-63
2022/01/16 05:06:34;;;;;;;1.99;1.00;;;;;;;;;;359100;147;866398;-62
2022/01/16 05:07:36;;;;;;;2.85;1.22;;;;;;;;;;356671;147;857375;-63
2022/01/16 05:08:38;;;;;;;3.95;1.09;;;;;;;;;;359001;147;859029;-63
2022/01/16 05:09:39;;;;;;;2.77;1.21;;;;;;;;;;356970;147;864504;-62
2022/01/16 05:10:41;;;;;;;2.63;1.16;;;;;;;;;;356713;147;862735;-63
2022/01/16 05:11:45;;;;;;;1.96;1.05;;;;;;;;;;357978;146;857300;-63
2022/01/16 05:12:50;;;;;;;2.14;0.93;;;;;;;;;;358525;147;858805;-63
2022/01/16 05:17:34;;;;;;;1.93;0.96;;;;;;;;;;358343;147;858005;-62
2022/01/16 05:18:36;;;;;;;2.65;1.20;;;;;;;;;;350776;149;867417;-62
2022/01/16 05:19:37;;;;;;;4.18;1.40;;;;;;;;;;351529;150;866714;-62
2022/01/16 05:20:39;;;;;;;2.01;1.10;;;;;;;;;;358303;147;865360;-62
2022/01/16 05:21:42;;;;;;;3.50;1.25;;;;;;;;;;359034;147;859604;-62
2022/01/16 05:22:44;;;;;;;2.88;0.78;;;;;;;;;;357793;147;857709;-62
2022/01/16 05:23:45;;;;;;;2.74;1.15;;;;;;;;;;350231;151;857439;-62
2022/01/16 05:24:47;;;;;;;2.79;1.19;;;;;;;;;;349180;149;862527;-62
2022/01/16 05:25:48;;;;;;;2.44;1.14;;;;;;;;;;359101;147;865900;-62
2022/01/16 05:26:50;;;;;;;5.13;1.01;;;;;;;;;;356773;148;859618;-62
2022/01/16 05:27:52;;;;;;;5.51;1.45;;;;;;;;;;357565;147;858643;-62
2022/01/16 05:28:54;;;;;;;3.59;1.19;;;;;;;;;;358021;147;858318;-64
2022/01/16 05:29:56;;;;;;;3.75;0.94;;;;;;;;;;357563;148;866139;-62
2022/01/16 05:30:58;;;;;;;4.30;1.17;;;;;;;;;;357181;147;857058;-62
2022/01/16 05:32:00;;;;;;;3.28;1.15;;;;;;;;;;357799;148;857280;-62
2022/01/16 05:33:02;;;;;;;2.61;1.13;;;;;;;;;;358305;147;866266;-64
2022/01/16 05:34:03;;;;;;;2.79;1.11;;;;;;;;;;357960;148;864541;-62
2022/01/16 05:35:05;;;;;;;1.75;0.97;;;;;;;;;;357352;147;864482;-62
2022/01/16 05:36:08;;;;;;;1.46;0.94;;;;;;;;;;358400;147;864936;-62
2022/01/16 05:37:09;;;;;;;2.39;1.23;;;;;;;;;;357679;147;857281;-62
2022/01/16 05:38:11;;;;;;;1.48;1.12;;;;;;;;;;358008;147;865721;-62
2022/01/16 05:39:13;;;;;;;2.59;1.10;;;;;;;;;;358112;147;860614;-62
2022/01/16 05:40:16;;;;;;;2.36;1.20;;;;;;;;;;357123;147;864929;-62
2022/01/16 05:41:19;;;;;;;5.10;1.19;;;;;;;;;;358921;147;857824;-62
2022/01/16 05:42:20;;;;;;;2.11;0.99;;;;;;;;;;357217;147;857693;-62
2022/01/16 05:43:22;;;;;;;3.73;1.20;;;;;;;;;;357399;147;859276;-62
2022/01/16 05:44:24;;;;;;;5.91;1.86;;;;;;;;;;357988;147;857269;-62
2022/01/16 05:45:25;;;;;;;4.09;1.20;;;;;;;;;;357417;147;857347;-63
2022/01/16 05:46:28;;;;;;;3.15;1.22;;;;;;;;;;356765;147;857329;-64
2022/01/16 05:47:30;;;;;;;1.78;1.20;;;;;;;;;;356706;147;856297;-63
2022/01/16 05:48:32;;;;;;;3.77;1.20;;;;;;;;;;357731;147;865992;-63
2022/01/16 05:49:34;;;;;;;2.62;1.17;;;;;;;;;;357782;148;858702;-63
2022/01/16 05:50:36;;;;;;;2.79;1.10;;;;;;;;;;357265;148;863658;-64
2022/01/16 05:51:37;;;;;;;2.66;1.30;;;;;;;;;;358421;147;858827;-63
2022/01/16 05:52:39;;;;;;;1.95;1.04;;;;;;;;;;357615;147;865855;-63
2022/01/16 05:53:44;;;;;;;2.48;1.07;;;;;;;;;;358266;147;866021;-62
2022/01/16 05:54:44;;;;;;;2.81;1.42;;;;;;;;;;359428;147;858605;-63
2022/01/16 05:55:46;;;;;;;1.56;0.90;;;;;;;;;;357763;147;864638;-63
2022/01/16 05:56:48;;;;;;;4.26;1.13;;;;;;;;;;358779;147;866686;-64
2022/01/16 05:57:49;;;;;;;2.88;1.15;;;;;;;;;;358009;147;864683;-62
2022/01/16 05:58:51;;;;;;;2.43;1.13;;;;;;;;;;358322;147;856603;-62
2022/01/16 05:59:55;;;;;;;1.99;1.18;;;;;;;;;;357602;147;862698;-62
2022/01/16 06:00:56;;;;;;;4.95;1.26;;;;;;;;;;357835;147;858916;-63
2022/01/16 06:01:58;;;;;;;2.04;1.03;;;;;;;;;;356896;147;866452;-63
2022/01/16 06:03:00;;;;;;;4.58;1.13;;;;;;;;;;357766;147;866414;-63
2022/01/16 06:04:02;;;;;;;4.57;1.32;;;;;;;;;;358404;147;857389;-62
2022/01/16 06:05:05;;;;;;;1.82;1.15;;;;;;;;;;356999;147;857127;-63
2022/01/16 06:06:07;;;;;;;4.52;1.32;;;;;;;;;;357879;147;858151;-63
2022/01/16 06:07:09;;;;;;;2.19;1.12;;;;;;;;;;358039;147;857245;-63
2022/01/16 06:08:12;;;;;;;1.96;1.20;;;;;;;;;;357962;147;856529;-63
2022/01/16 06:09:14;;;;;;;3.17;1.14;;;;;;;;;;358234;147;859609;-63
2022/01/16 06:10:16;;;;;;;2.31;1.29;;;;;;;;;;358034;147;859417;-63
2022/01/16 06:11:17;;;;;;;2.30;1.22;;;;;;;;;;357244;147;857279;-63
2022/01/16 06:12:19;;;;;;;3.70;1.44;;;;;;;;;;357758;147;864958;-61
2022/01/16 06:13:21;;;;;;;3.69;1.27;;;;;;;;;;357701;147;857294;-62
2022/01/16 06:14:23;;;;;;;2.56;1.34;;;;;;;;;;358216;147;858757;-61
2022/01/16 06:15:25;;;;;;;2.49;1.12;;;;;;;;;;358018;147;856661;-62
2022/01/16 06:16:26;;;;;;;2.53;1.23;;;;;;;;;;357814;148;859119;-62
2022/01/16 06:17:31;;;;;;;2.78;1.26;;;;;;;;;;358376;147;857271;-62
2022/01/16 06:18:33;;;;;;;2.59;1.22;;;;;;;;;;357247;147;862303;-63
2022/01/16 06:19:35;;;;;;;3.43;1.21;;;;;;;;;;357327;147;857069;-63
2022/01/16 06:20:37;;;;;;;3.15;1.29;;;;;;;;;;357326;147;857374;-62
2022/01/16 06:21:39;;;;;;;3.70;1.23;;;;;;;;;;357488;147;858920;-61
2022/01/16 06:23:00;;;;;;;3.59;1.23;;;;;;;;;;357863;147;858612;-62
2022/01/16 06:24:03;;;;;;;1.78;1.03;;;;;;;;;;359275;146;857127;-61
2022/01/16 06:25:05;;;;;;;3.02;1.17;;;;;;;;;;359346;146;857298;-63
2022/01/16 06:26:09;;;;;;;3.97;1.20;;;;;;;;;;359486;146;857684;-62
2022/01/16 06:27:10;;;;;;;2.05;1.12;;;;;;;;;;359460;146;859167;-62
2022/01/16 06:28:12;;;;;;;4.05;1.21;;;;;;;;;;358682;146;857690;-63
2022/01/16 06:29:14;;;;;;;1.87;1.16;;;;;;;;;;360551;146;864667;-62
2022/01/16 06:30:16;;;;;;;6.78;1.62;;;;;;;;;;359193;146;864966;-63
2022/01/16 06:31:17;;;;;;;4.52;1.08;;;;;;;;;;359331;146;857670;-63
2022/01/16 06:32:19;;;;;;;3.40;1.20;;;;;;;;;;360014;146;862365;-63
2022/01/16 06:33:21;;;;;;;2.36;1.11;;;;;;;;;;359624;146;866539;-63
2022/01/16 06:34:23;;;;;;;1.79;1.21;;;;;;;;;;359519;146;865691;-63
2022/01/16 06:35:24;;;;;;;4.06;1.31;;;;;;;;;;360320;146;857404;-63
2022/01/16 06:36:26;;;;;;;2.92;1.53;;;;;;;;;;359257;146;865728;-63
2022/01/16 06:37:28;;;;;;;7.68;1.41;;;;;;;;;;359948;146;858761;-63
2022/01/16 06:38:30;;;;;;;2.32;1.30;;;;;;;;;;359271;146;864740;-63
2022/01/16 06:39:31;;;;;;;3.24;1.91;;;;;;;;;;360203;146;866670;-63
2022/01/16 06:40:33;;;;;;;4.36;1.19;;;;;;;;;;351939;149;865067;-63
2022/01/16 06:41:35;;;;;;;3.61;1.02;;;;;;;;;;346456;149;857320;-63
2022/01/16 06:42:38;;;;;;;1.55;1.10;;;;;;;;;;348000;151;856220;-62
2022/01/16 06:43:40;;;;;;;5.36;1.28;;;;;;;;;;346007;152;856653;-64
2022/01/16 06:44:42;;;;;;;4.41;1.33;;;;;;;;;;345014;152;862645;-63
2022/01/16 06:45:43;;;;;;;3.33;1.30;;;;;;;;;;346188;152;866151;-63
2022/01/16 06:46:45;;;;;;;2.56;1.21;;;;;;;;;;346739;152;858804;-63
2022/01/16 06:47:47;;;;;;;3.84;1.37;;;;;;;;;;346052;152;865130;-64
2022/01/16 06:48:49;;;;;;;6.07;1.61;;;;;;;;;;345516;152;864707;-64
2022/01/16 06:49:50;;;;;;;4.81;1.43;;;;;;;;;;345862;152;864880;-63